ADDS TAF Board (Experimental) INFO

IDs: Format: Expanded Condensed

Updated at: 1132 UTC 02 Sep 2014

KPDX - Portland Intl Arpt, OR, US

Issued at 0909 UTC 02 Sep 2014
Time1053Z02/12Z02/13Z02/14Z02/15Z02/16Z02/17Z02/18Z02/19Z02/20Z02/21Z02/22Z02/23Z03/00Z
TypeOBSPRVLPRVLPRVLPRVLPRVLPRVLPRVLPRVLPRVLPRVLPRVLPRVLPRVL
VIS10>6>6>6>6>6>6>6>6>6>6>6>6>6
CIG501515151515151515----------
CoverBKNBKNBKNBKNBKNBKNBKNBKNBKNSCTSCTSCTSCTSCT
FltCat--MVFRMVFRMVFRMVFRMVFRMVFRMVFRMVFRVFRVFRVFRVFRVFR
WX----------------------------
WDir320300300300300300300300300290290290290290
WSpd46666666677777
WGst----------------------------
R03/21
XWnd46666666666666
HWnd0-2-2-2-2-2-2-2-2-3-3-3-3-3
R10/28
XWnd100000000-1-1-1-1-1
HWnd-4-6-6-6-6-6-6-6-6-7-7-7-7-7
Raw TAF
KPDX 020909Z 0209/0306 31008KT P6SM FEW015 SCT060
  FM021000 30006KT P6SM BKN015
  FM022000 29007KT P6SM SCT035
  FM030200 29007KT P6SM BKN035


Raw METAR
KPDX 021053Z 32004KT 10SM BKN050 17/14 A2996 RMK AO2 SLP143 T01670139 $

TAF Board Legend

Hazard VFR MVFR IFR LIFR
Visibility (sm) >5 3≤X≤5 1≤X<3 <1
Ceiling (100 ft) >30 10≤X≤30 5≤X<10 <5
Wind Speed (kt) <10 10≤X<20 20≤X<30 ≥30
Wind Gust (kt) <15 15≤X<25 25≤X<35 ≥35
Weather No Wx Reported VCTS,-TS,-FZRA TS,FZRA +TS,+FZRA


Page loaded:  11:32 UTC  |   04:32 AM Pacific  |   05:32 AM Mountain  |   06:32 AM Central  |   07:32 AM Eastern

 

ADVISORIES

FORECASTS

FORECASTS

OBSERVATIONS

USER TOOLS

ABOUT US